createdAt,value
2023-10-06T06:59:15.961Z,213.75
2023-10-06T07:00:17.151Z,219.38
2023-10-06T07:01:17.124Z,230.62
2023-10-06T07:02:17.206Z,236.25
2023-10-06T07:03:17.280Z,247.50
2023-10-06T07:04:17.298Z,258.75
2023-10-06T07:05:17.413Z,264.38
2023-10-06T07:06:17.672Z,270.00
2023-10-06T07:07:17.575Z,275.62
2023-10-06T07:08:17.679Z,281.25
2023-10-06T07:09:17.693Z,286.88
2023-10-06T07:10:17.771Z,286.88
2023-10-06T07:11:17.956Z,292.50
2023-10-06T07:12:17.958Z,309.38
2023-10-06T07:13:18.030Z,315.00
2023-10-06T07:14:18.179Z,320.62
2023-10-06T07:15:18.185Z,331.88
2023-10-06T07:16:18.292Z,343.12
2023-10-06T07:17:18.439Z,348.75
2023-10-06T07:18:18.510Z,360.00
2023-10-06T07:19:18.522Z,371.25
2023-10-06T07:20:18.624Z,388.12
2023-10-06T07:21:18.711Z,399.38
2023-10-06T07:22:18.779Z,405.00
2023-10-06T07:23:18.935Z,410.62
2023-10-06T07:24:18.935Z,416.25
2023-10-06T07:25:19.020Z,421.88
2023-10-06T07:26:19.177Z,421.88
2023-10-06T07:27:19.206Z,427.50
2023-10-06T07:28:19.315Z,421.88
2023-10-06T07:29:19.385Z,416.25
2023-10-06T07:30:19.434Z,410.62
2023-10-06T07:31:19.529Z,416.25
2023-10-06T07:32:19.606Z,410.62
2023-10-06T07:33:19.713Z,410.62
2023-10-06T07:34:19.761Z,410.62
2023-10-06T07:35:19.872Z,416.25
2023-10-06T07:36:19.947Z,410.62
2023-10-06T07:37:20.045Z,416.25
2023-10-06T07:38:20.178Z,416.25
2023-10-06T07:39:20.225Z,416.25
2023-10-06T07:40:20.273Z,410.62
2023-10-06T07:41:20.397Z,405.00
2023-10-06T07:42:20.467Z,405.00
2023-10-06T07:43:20.521Z,410.62
2023-10-06T07:44:20.641Z,427.50
2023-10-06T07:45:21.817Z,433.12
2023-10-06T07:46:20.892Z,444.38
2023-10-06T07:47:20.922Z,461.25
2023-10-06T07:48:20.900Z,455.62
2023-10-06T07:49:21.006Z,466.88
2023-10-06T07:50:21.118Z,472.50
2023-10-06T07:51:21.293Z,478.12
2023-10-06T07:52:21.270Z,489.38
2023-10-06T07:53:21.411Z,500.62
2023-10-06T07:54:21.423Z,511.88
2023-10-06T07:55:21.524Z,534.38
2023-10-06T07:56:21.622Z,551.25
2023-10-06T07:57:21.710Z,556.88
2023-10-06T07:58:21.807Z,556.88
2023-10-06T07:59:21.891Z,568.12
2023-10-06T08:00:21.941Z,573.75
2023-10-06T08:01:22.068Z,579.38
2023-10-06T08:02:22.149Z,579.38
2023-10-06T08:03:22.183Z,585.00
2023-10-06T08:04:22.264Z,590.62
2023-10-06T08:05:22.353Z,590.62
2023-10-06T08:06:22.417Z,590.62
2023-10-06T08:07:22.488Z,590.62
2023-10-06T08:08:22.611Z,585.00
2023-10-06T08:09:22.636Z,585.00
2023-10-06T08:10:22.727Z,590.62
2023-10-06T08:11:23.216Z,585.00
2023-10-06T08:12:22.921Z,590.62
2023-10-06T08:13:23.032Z,596.25
2023-10-06T08:14:23.111Z,590.62
2023-10-06T08:15:23.137Z,579.38
2023-10-06T08:16:23.238Z,579.38
2023-10-06T08:17:23.358Z,579.38
2023-10-06T08:18:23.385Z,573.75
2023-10-06T08:19:23.446Z,551.25
2023-10-06T08:20:23.591Z,534.38
2023-10-06T08:21:23.571Z,506.25
2023-10-06T08:22:23.650Z,472.50
2023-10-06T08:23:23.734Z,444.38
2023-10-06T08:24:23.821Z,421.88
2023-10-06T08:25:23.903Z,410.62
2023-10-06T08:26:23.985Z,410.62
2023-10-06T08:27:24.046Z,393.75
2023-10-06T08:28:24.153Z,393.75
2023-10-06T08:29:24.246Z,388.12
2023-10-06T08:30:24.294Z,376.88
2023-10-06T08:31:24.418Z,365.62
2023-10-06T08:32:24.510Z,360.00
2023-10-06T08:33:24.600Z,371.25
2023-10-06T08:34:24.633Z,410.62
2023-10-06T08:35:24.737Z,478.12
2023-10-06T08:36:24.746Z,534.38
2023-10-06T08:37:24.828Z,765.00
2023-10-06T08:38:24.989Z,781.88
2023-10-06T08:39:25.030Z,748.12
2023-10-06T08:40:25.125Z,843.75
2023-10-06T08:41:25.245Z,855.00
2023-10-06T08:42:25.325Z,832.50
2023-10-06T08:43:25.343Z,967.50
2023-10-06T08:44:25.512Z,877.50
2023-10-06T08:45:25.578Z,888.75
2023-10-06T08:46:25.649Z,652.50
2023-10-06T08:47:32.343Z,573.75
2023-10-06T08:48:25.849Z,641.25
2023-10-06T08:49:25.955Z,618.75
2023-10-06T08:50:26.001Z,618.75
2023-10-06T08:51:25.998Z,725.62
2023-10-06T08:52:26.078Z,1181.25
2023-10-06T08:53:26.189Z,871.88
2023-10-06T08:54:26.236Z,1608.75
2023-10-06T08:55:26.323Z,1456.88
2023-10-06T08:56:26.411Z,1130.62
2023-10-06T08:57:26.449Z,1215.00
2023-10-06T08:58:26.518Z,1260.00
2023-10-06T08:59:26.690Z,1321.88
2023-10-06T09:00:26.732Z,1288.12
2023-10-06T09:01:26.788Z,1383.75
2023-10-06T09:02:26.990Z,1670.62
2023-10-06T09:03:28.819Z,1923.75
2023-10-06T09:04:27.053Z,1918.12
2023-10-06T09:05:27.151Z,1878.75
2023-10-06T09:06:27.222Z,2008.12
2023-10-06T09:07:27.330Z,2025.00
2023-10-06T09:08:27.427Z,1822.50
2023-10-06T09:09:27.586Z,1929.38
2023-10-06T09:10:27.601Z,1951.88
2023-10-06T09:11:27.686Z,1800.00
2023-10-06T09:12:27.770Z,1845.00
2023-10-06T09:13:27.797Z,1648.12
2023-10-06T09:14:27.886Z,1659.38
2023-10-06T09:15:27.948Z,1659.38
2023-10-06T09:16:28.099Z,1766.25
2023-10-06T09:17:28.136Z,1726.88
2023-10-06T09:18:28.171Z,1732.50
2023-10-06T09:19:28.222Z,1884.38
2023-10-06T09:20:30.755Z,2058.75
2023-10-06T09:21:28.390Z,2126.25
2023-10-06T09:22:28.465Z,2176.88
2023-10-06T09:23:28.582Z,2295.00
2023-10-06T09:24:28.643Z,2255.62
2023-10-06T09:25:28.704Z,2446.88
2023-10-06T09:26:28.969Z,2598.75
2023-10-06T09:27:28.872Z,2553.75
2023-10-06T09:28:28.943Z,2548.12
2023-10-06T09:29:29.047Z,2362.50
2023-10-06T09:30:29.101Z,2311.88
2023-10-06T09:31:29.251Z,2373.75
2023-10-06T09:32:29.961Z,2334.38
2023-10-06T09:33:29.342Z,2317.50
2023-10-06T09:34:29.436Z,2373.75
2023-10-06T09:35:29.519Z,1923.75
2023-10-06T09:36:42.586Z,1788.75
2023-10-06T09:37:29.685Z,1996.88
2023-10-06T09:38:29.783Z,2041.88
2023-10-06T09:39:29.842Z,1946.25
2023-10-06T09:40:29.912Z,2030.62
2023-10-06T09:41:30.046Z,2126.25
2023-10-06T09:42:30.076Z,2120.62
2023-10-06T09:43:30.133Z,2092.50
2023-10-06T09:44:30.299Z,1760.62
2023-10-06T09:45:30.300Z,1811.25
2023-10-06T09:46:30.370Z,1749.38
2023-10-06T09:47:30.560Z,1771.88
2023-10-06T09:48:30.545Z,1890.00
2023-10-06T09:49:30.583Z,1890.00
2023-10-06T09:50:30.708Z,1856.25
2023-10-06T09:51:30.751Z,2086.88
2023-10-06T09:52:30.844Z,2210.62
2023-10-06T09:53:30.907Z,2041.88
2023-10-06T09:54:30.972Z,2120.62
2023-10-06T09:55:31.050Z,1800.00
2023-10-06T09:56:31.186Z,1665.00
2023-10-06T09:57:31.200Z,1687.50
2023-10-06T09:58:31.288Z,1642.50
2023-10-06T09:59:31.416Z,1760.62
2023-10-06T10:00:31.557Z,1951.88
2023-10-06T10:01:31.732Z,1861.88
2023-10-06T10:02:31.763Z,2244.38
2023-10-06T10:03:31.857Z,2126.25
2023-10-06T10:04:31.770Z,1895.62
2023-10-06T10:05:31.893Z,1800.00
2023-10-06T10:06:31.951Z,1569.38
2023-10-06T10:07:32.032Z,1659.38
2023-10-06T10:08:32.127Z,1693.12
2023-10-06T10:09:32.217Z,1783.12
2023-10-06T10:10:32.275Z,1980.00
2023-10-06T10:11:32.456Z,2205.00
2023-10-06T10:12:32.424Z,2255.62
2023-10-06T10:13:32.494Z,2475.00
2023-10-06T10:14:32.604Z,2210.62
2023-10-06T10:15:32.681Z,1895.62
2023-10-06T10:16:32.822Z,2289.38
2023-10-06T10:17:32.884Z,2548.12
2023-10-06T10:18:32.966Z,2570.62
2023-10-06T10:19:32.985Z,2475.00
2023-10-06T10:20:33.091Z,2598.75
2023-10-06T10:21:33.144Z,2694.38
2023-10-06T10:22:33.278Z,2520.00
2023-10-06T10:23:33.306Z,2379.38
2023-10-06T10:25:11.536Z,2520.00
2023-10-06T10:25:33.454Z,2700.00
2023-10-06T10:26:33.582Z,2210.62
2023-10-06T10:27:33.629Z,2531.25
2023-10-06T10:28:33.705Z,2508.75
2023-10-06T10:29:33.773Z,2610.00
2023-10-06T10:30:33.834Z,2520.00
2023-10-06T10:31:42.097Z,2300.62
2023-10-06T10:32:34.018Z,2418.75
2023-10-06T10:33:34.049Z,2368.12
2023-10-06T10:34:34.117Z,2278.12
2023-10-06T10:35:34.210Z,1951.88
2023-10-06T10:36:34.258Z,1800.00
2023-10-06T10:37:34.341Z,2750.62
2023-10-06T10:38:34.535Z,2576.25
2023-10-06T10:39:34.481Z,2896.88
2023-10-06T10:40:34.552Z,3031.88
2023-10-06T10:41:34.646Z,2958.75
2023-10-06T10:42:34.730Z,3099.38
2023-10-06T10:43:34.814Z,3150.00
2023-10-06T10:44:34.887Z,3037.50
2023-10-06T10:45:34.970Z,3088.12
2023-10-06T10:46:35.049Z,3060.00
2023-10-06T10:47:35.264Z,3251.25
2023-10-06T10:48:35.206Z,3127.50
2023-10-06T10:49:35.274Z,2958.75
2023-10-06T10:50:35.403Z,2300.62
2023-10-06T10:51:35.423Z,2784.38
2023-10-06T10:52:35.517Z,2801.25
2023-10-06T10:53:35.603Z,2891.25
2023-10-06T10:54:35.676Z,2947.50
2023-10-06T10:55:35.827Z,3054.38
2023-10-06T10:56:35.861Z,2891.25
2023-10-06T10:57:35.939Z,2880.00
2023-10-06T10:58:36.015Z,2840.62
2023-10-06T10:59:36.075Z,2745.00
2023-10-06T11:00:36.181Z,2829.38
2023-10-06T11:01:36.218Z,3037.50
2023-10-06T11:02:36.364Z,3155.62
2023-10-06T11:03:36.445Z,3127.50
2023-10-06T11:04:36.505Z,3189.38
2023-10-06T11:05:36.589Z,3262.50
2023-10-06T11:06:36.639Z,3318.75
2023-10-06T11:07:36.777Z,3307.50
2023-10-06T11:08:36.873Z,3290.62
2023-10-06T11:09:36.933Z,3189.38
2023-10-06T11:10:36.999Z,3088.12
2023-10-06T11:11:37.096Z,3155.62
2023-10-06T11:12:37.172Z,3262.50
2023-10-06T11:13:52.113Z,3245.62
2023-10-06T11:14:37.338Z,3200.62
2023-10-06T11:15:37.429Z,3268.12
2023-10-06T11:16:37.564Z,3335.62
2023-10-06T11:17:37.645Z,2857.50
2023-10-06T11:18:37.735Z,2891.25
2023-10-06T11:19:37.809Z,1816.88
2023-10-06T11:20:37.996Z,877.50
2023-10-06T11:21:37.962Z,708.75
2023-10-06T11:22:38.022Z,680.62
2023-10-06T11:23:38.145Z,675.00
2023-10-06T11:24:38.193Z,658.12
2023-10-06T11:25:38.291Z,641.25
2023-10-06T11:26:38.397Z,624.38
2023-10-06T11:27:38.464Z,613.12
2023-10-06T11:28:38.537Z,618.75
2023-10-06T11:29:38.685Z,601.88
2023-10-06T11:30:38.680Z,613.12
2023-10-06T11:31:38.742Z,607.50
2023-10-06T11:32:38.914Z,646.88
2023-10-06T11:33:38.895Z,691.88
2023-10-06T11:34:38.969Z,742.50
2023-10-06T11:35:39.043Z,748.12
2023-10-06T11:36:39.100Z,765.00
2023-10-06T11:37:39.183Z,810.00
2023-10-06T11:38:39.246Z,860.62
2023-10-06T11:39:39.330Z,911.25
2023-10-06T11:40:39.403Z,945.00
2023-10-06T11:41:39.479Z,990.00
2023-10-06T11:42:39.609Z,1023.75
2023-10-06T11:43:39.662Z,1051.88
2023-10-06T11:44:39.778Z,978.75
2023-10-06T11:45:39.818Z,905.62
2023-10-06T11:46:39.877Z,838.12
2023-10-06T11:47:40.059Z,838.12
2023-10-06T11:48:40.191Z,826.88
2023-10-06T11:49:40.138Z,860.62
2023-10-06T11:50:40.249Z,860.62
2023-10-06T11:51:40.331Z,866.25
2023-10-06T11:52:40.372Z,900.00
2023-10-06T11:53:40.513Z,950.62
2023-10-06T11:54:40.544Z,961.88
2023-10-06T11:55:40.627Z,961.88
2023-10-06T11:56:40.742Z,933.75
2023-10-06T11:57:40.761Z,916.88
2023-10-06T11:58:40.822Z,888.75
2023-10-06T11:59:40.902Z,877.50
2023-10-06T12:00:40.964Z,888.75
2023-10-06T12:01:41.169Z,905.62
2023-10-06T12:02:41.260Z,905.62
2023-10-06T12:03:41.413Z,905.62
2023-10-06T12:04:41.322Z,911.25
2023-10-06T12:05:41.377Z,967.50
2023-10-06T12:06:41.451Z,984.38
2023-10-06T12:07:41.562Z,1085.62
2023-10-06T12:08:41.628Z,1130.62
2023-10-06T12:09:41.700Z,1181.25
2023-10-06T12:10:41.757Z,1203.75
2023-10-06T12:11:41.826Z,1203.75
2023-10-06T12:12:41.902Z,1181.25
2023-10-06T12:13:41.995Z,1175.62
2023-10-06T12:14:42.099Z,1164.38
2023-10-06T12:15:43.099Z,1136.25
2023-10-06T12:16:42.315Z,1108.12
2023-10-06T12:17:42.369Z,1136.25
2023-10-06T12:18:42.359Z,1175.62
2023-10-06T12:19:42.471Z,1170.00
2023-10-06T12:20:42.637Z,1141.88
2023-10-06T12:21:42.645Z,1147.50
2023-10-06T12:22:42.717Z,1153.12
2023-10-06T12:23:42.792Z,1153.12
2023-10-06T12:24:42.860Z,1119.38
2023-10-06T12:25:42.971Z,1108.12
2023-10-06T12:26:43.048Z,1096.88
2023-10-06T12:27:43.117Z,1080.00
2023-10-06T12:28:43.195Z,1046.25
2023-10-06T12:29:43.272Z,1023.75
2023-10-06T12:30:43.448Z,1012.50
2023-10-06T12:31:43.444Z,1012.50
2023-10-06T12:32:43.604Z,1012.50
2023-10-06T12:33:43.685Z,1006.88
2023-10-06T12:34:43.661Z,984.38
2023-10-06T12:35:43.781Z,984.38
2023-10-06T12:36:43.847Z,967.50
2023-10-06T12:37:43.937Z,933.75
2023-10-06T12:38:44.026Z,911.25
2023-10-06T12:39:44.084Z,894.38
2023-10-06T12:40:44.284Z,866.25
2023-10-06T12:41:44.414Z,826.88
2023-10-06T12:42:44.416Z,793.12
2023-10-06T12:43:44.477Z,765.00
2023-10-06T12:44:44.566Z,748.12
2023-10-06T12:45:44.601Z,753.75
2023-10-06T12:46:44.735Z,759.38
2023-10-06T12:47:44.849Z,776.25
2023-10-06T12:48:44.821Z,798.75
2023-10-06T12:49:45.035Z,815.62
2023-10-06T12:50:44.999Z,826.88
2023-10-06T12:51:45.087Z,815.62
2023-10-06T12:52:45.143Z,804.38
2023-10-06T12:53:45.235Z,798.75
2023-10-06T12:54:45.368Z,781.88
2023-10-06T12:55:45.422Z,765.00
2023-10-06T12:56:45.480Z,748.12
2023-10-06T12:57:45.592Z,736.88
2023-10-06T12:58:45.677Z,731.25
2023-10-06T12:59:45.764Z,725.62
2023-10-06T13:00:45.924Z,725.62
2023-10-06T13:01:45.975Z,736.88
2023-10-06T13:02:46.156Z,748.12
2023-10-06T13:03:46.361Z,753.75
2023-10-06T13:04:46.790Z,759.38
2023-10-06T13:05:46.284Z,759.38
2023-10-06T13:06:46.409Z,753.75
2023-10-06T13:07:46.447Z,753.75
2023-10-06T13:08:46.543Z,742.50
2023-10-06T13:09:46.606Z,731.25
2023-10-06T13:10:46.661Z,720.00
2023-10-06T13:11:46.752Z,708.75
2023-10-06T13:12:46.824Z,714.38
2023-10-06T13:13:46.913Z,736.88
2023-10-06T13:14:46.992Z,781.88
2023-10-06T13:15:47.043Z,838.12
2023-10-06T13:16:47.096Z,888.75
2023-10-06T13:17:47.244Z,933.75
2023-10-06T13:18:47.284Z,967.50
2023-10-06T13:19:47.398Z,973.12
2023-10-06T13:20:47.517Z,950.62
2023-10-06T13:21:47.548Z,922.50
2023-10-06T13:22:47.603Z,894.38
2023-10-06T13:23:47.682Z,871.88
2023-10-06T13:24:47.813Z,866.25
2023-10-06T13:25:47.869Z,860.62
2023-10-06T13:26:47.970Z,877.50
2023-10-06T13:27:48.085Z,877.50
2023-10-06T13:28:48.170Z,883.12
2023-10-06T13:29:48.225Z,911.25
2023-10-06T13:30:48.310Z,933.75
2023-10-06T13:31:48.492Z,950.62
2023-10-06T13:32:48.540Z,978.75
2023-10-06T13:33:48.538Z,826.88
2023-10-06T13:34:48.641Z,832.50
2023-10-06T13:35:48.706Z,843.75
2023-10-06T13:36:48.784Z,877.50
2023-10-06T13:37:48.853Z,905.62
2023-10-06T13:38:48.905Z,922.50
2023-10-06T13:39:48.987Z,883.12
2023-10-06T13:40:49.052Z,883.12
2023-10-06T13:41:49.142Z,888.75
2023-10-06T13:42:49.228Z,894.38
2023-10-06T13:43:49.294Z,883.12
2023-10-06T13:44:49.414Z,871.88
2023-10-06T13:45:49.475Z,855.00
2023-10-06T13:46:49.565Z,821.25
2023-10-06T13:47:49.694Z,793.12
2023-10-06T13:48:49.848Z,770.62
2023-10-06T13:49:50.792Z,759.38
2023-10-06T13:50:49.900Z,736.88
2023-10-06T13:51:49.938Z,725.62
2023-10-06T13:52:50.041Z,720.00
2023-10-06T13:53:50.135Z,725.62
2023-10-06T13:54:50.262Z,725.62
2023-10-06T13:55:50.317Z,731.25
2023-10-06T13:56:50.399Z,736.88
2023-10-06T13:57:50.460Z,748.12
2023-10-06T13:58:50.541Z,742.50
2023-10-06T13:59:50.637Z,720.00
2023-10-06T14:00:50.693Z,703.12
2023-10-06T14:01:50.773Z,720.00
2023-10-06T14:02:50.976Z,759.38
2023-10-06T14:03:51.116Z,810.00
2023-10-06T14:04:51.034Z,849.38
2023-10-06T14:05:51.094Z,843.75
2023-10-06T14:06:51.219Z,838.12
2023-10-06T14:07:51.274Z,843.75
2023-10-06T14:08:51.365Z,849.38
2023-10-06T14:09:51.439Z,855.00
2023-10-06T14:10:51.542Z,860.62
2023-10-06T14:11:51.608Z,871.88
2023-10-06T14:12:51.685Z,871.88
2023-10-06T14:13:51.746Z,871.88
2023-10-06T14:14:51.850Z,871.88
2023-10-06T14:15:51.981Z,871.88
2023-10-06T14:16:52.072Z,832.50
2023-10-06T14:17:52.168Z,821.25
2023-10-06T14:18:52.198Z,798.75
2023-10-06T14:19:52.295Z,770.62
2023-10-06T14:20:52.393Z,736.88
2023-10-06T14:21:52.488Z,691.88
2023-10-06T14:22:52.546Z,658.12
2023-10-06T14:23:52.612Z,618.75
2023-10-06T14:24:52.719Z,579.38
2023-10-06T14:25:52.783Z,573.75
2023-10-06T14:26:52.884Z,573.75
2023-10-06T14:27:52.946Z,573.75
2023-10-06T14:28:53.048Z,579.38
2023-10-06T14:29:53.114Z,573.75
2023-10-06T14:30:53.265Z,556.88
2023-10-06T14:31:53.311Z,545.62
2023-10-06T14:32:53.371Z,528.75
2023-10-06T14:33:53.458Z,517.50
2023-10-06T14:34:53.567Z,511.88
2023-10-06T14:35:53.642Z,511.88
2023-10-06T14:36:53.749Z,500.62
2023-10-06T14:37:53.783Z,478.12
2023-10-06T14:38:53.886Z,461.25
2023-10-06T14:39:53.928Z,455.62
2023-10-06T14:40:54.001Z,461.25
2023-10-06T14:41:54.110Z,450.00
2023-10-06T14:42:54.186Z,444.38
2023-10-06T14:43:54.277Z,444.38
2023-10-06T14:44:54.355Z,450.00
2023-10-06T14:45:54.447Z,461.25
2023-10-06T14:46:54.695Z,472.50
2023-10-06T14:47:54.663Z,489.38
2023-10-06T14:48:54.701Z,495.00
2023-10-06T14:49:54.752Z,495.00
2023-10-06T14:50:54.840Z,495.00
2023-10-06T14:51:55.080Z,495.00
2023-10-06T14:52:55.133Z,500.62
2023-10-06T14:53:55.104Z,495.00
2023-10-06T14:54:55.181Z,511.88
2023-10-06T14:55:55.255Z,534.38
2023-10-06T14:56:55.441Z,540.00
2023-10-06T14:57:55.428Z,534.38
2023-10-06T14:58:55.485Z,517.50
2023-10-06T14:59:55.548Z,511.88
2023-10-06T15:00:55.655Z,511.88
2023-10-06T15:01:55.713Z,500.62
2023-10-06T15:02:55.916Z,478.12
2023-10-06T15:03:55.948Z,455.62
2023-10-06T15:04:55.959Z,427.50
2023-10-06T15:05:56.046Z,405.00
2023-10-06T15:06:56.123Z,405.00
2023-10-06T15:07:56.233Z,410.62
2023-10-06T15:08:56.285Z,416.25
2023-10-06T15:09:56.376Z,416.25
2023-10-06T15:10:56.448Z,410.62
2023-10-06T15:11:56.525Z,399.38
2023-10-06T15:12:56.620Z,393.75
2023-10-06T15:13:56.660Z,376.88
2023-10-06T15:14:56.739Z,365.62
2023-10-06T15:15:56.840Z,354.38
2023-10-06T15:16:56.895Z,348.75
2023-10-06T15:18:09.139Z,343.12
2023-10-06T15:18:57.119Z,348.75
2023-10-06T15:19:57.121Z,348.75
2023-10-06T15:20:57.226Z,354.38
2023-10-06T15:21:57.385Z,354.38
2023-10-06T15:22:57.427Z,343.12
2023-10-06T15:23:57.485Z,331.88
2023-10-06T15:24:57.559Z,320.62
2023-10-06T15:25:57.637Z,298.12
2023-10-06T15:26:57.719Z,281.25
2023-10-06T15:27:57.805Z,264.38
2023-10-06T15:28:57.908Z,258.75
2023-10-06T15:29:57.954Z,253.12
2023-10-06T15:30:58.039Z,253.12
2023-10-06T15:31:58.232Z,258.75
2023-10-06T15:32:58.250Z,270.00
2023-10-06T15:33:58.327Z,275.62
2023-10-06T15:34:58.418Z,275.62
2023-10-06T15:35:58.484Z,270.00
2023-10-06T15:36:58.559Z,264.38
2023-10-06T15:37:58.702Z,253.12
2023-10-06T15:38:58.760Z,241.88
2023-10-06T15:39:58.841Z,241.88
2023-10-06T15:40:58.925Z,241.88
2023-10-06T15:41:58.986Z,241.88
2023-10-06T15:43:17.346Z,236.25
2023-10-06T15:43:59.900Z,236.25
2023-10-06T15:44:59.260Z,230.62
2023-10-06T15:45:59.386Z,225.00
2023-10-06T15:46:59.434Z,219.38
2023-10-06T15:47:59.500Z,213.75
2023-10-06T15:48:59.564Z,208.12
2023-10-06T15:50:10.736Z,202.50
2023-10-06T15:50:59.815Z,196.88
2023-10-06T15:51:59.828Z,191.25
2023-10-06T15:52:59.948Z,185.62
2023-10-06T15:54:00.012Z,180.00
2023-10-06T15:55:00.166Z,180.00
2023-10-06T15:56:00.233Z,168.75
2023-10-06T15:57:00.243Z,163.12
2023-10-06T15:58:00.332Z,157.50
2023-10-06T15:59:00.453Z,157.50
2023-10-06T16:00:02.111Z,151.88
2023-10-06T16:01:00.561Z,146.25
2023-10-06T16:02:00.951Z,146.25
2023-10-06T16:03:00.854Z,140.62
2023-10-06T16:04:00.805Z,135.00
2023-10-06T16:05:00.885Z,135.00
2023-10-06T16:06:00.936Z,135.00
2023-10-06T16:07:01.010Z,129.38
2023-10-06T16:08:01.136Z,123.75
2023-10-06T16:09:01.175Z,123.75
2023-10-06T16:10:01.264Z,123.75
2023-10-06T16:11:01.505Z,123.75
2023-10-06T16:12:01.445Z,118.12
2023-10-06T16:13:01.518Z,118.12
2023-10-06T16:14:01.615Z,112.50
2023-10-06T16:15:01.682Z,112.50
2023-10-06T16:16:11.397Z,106.88
2023-10-06T16:17:02.721Z,106.88
2023-10-06T16:18:01.971Z,101.25
2023-10-06T16:19:02.106Z,101.25
2023-10-06T16:20:02.145Z,95.62
2023-10-06T16:21:02.261Z,95.62
2023-10-06T16:22:02.283Z,90.00
2023-10-06T16:23:02.409Z,84.38
2023-10-06T16:24:02.468Z,84.38
2023-10-06T16:25:02.533Z,78.75
2023-10-06T16:26:02.674Z,78.75
2023-10-06T16:27:02.714Z,73.12
2023-10-06T16:28:03.539Z,67.50
2023-10-06T16:29:02.923Z,67.50
2023-10-06T16:30:02.982Z,61.88
2023-10-06T16:31:03.091Z,61.88
2023-10-06T16:32:03.333Z,56.25
2023-10-06T16:33:03.249Z,50.62
2023-10-06T16:34:03.303Z,50.62
2023-10-06T16:35:04.565Z,45.00
2023-10-06T16:36:03.471Z,45.00
2023-10-06T16:37:03.579Z,39.38
2023-10-06T16:38:03.655Z,39.38
2023-10-06T16:39:03.730Z,33.75
2023-10-06T16:40:03.783Z,33.75
2023-10-06T16:41:03.914Z,33.75
2023-10-06T16:42:03.952Z,28.12
2023-10-06T16:43:04.017Z,28.12
2023-10-06T16:44:04.141Z,22.50
2023-10-06T16:45:04.212Z,22.50
2023-10-06T16:46:04.368Z,22.50
2023-10-06T16:47:04.438Z,16.88
2023-10-06T16:48:04.524Z,16.88
2023-10-06T16:49:07.454Z,16.88
2023-10-06T16:50:04.653Z,11.25
2023-10-06T16:51:04.702Z,11.25
2023-10-06T16:52:04.772Z,11.25
2023-10-06T16:53:04.878Z,11.25
2023-10-06T16:54:04.913Z,11.25
2023-10-06T16:55:05.004Z,11.25
2023-10-06T16:56:05.127Z,5.62
2023-10-06T16:57:05.157Z,5.62
2023-10-06T16:58:05.227Z,5.62
